createdAt,value
2019-03-31T00:00:38.593Z,65.97
2019-03-31T00:03:06.457Z,66.28
2019-03-31T00:05:37.147Z,67.07
2019-03-31T00:08:02.038Z,68.99
2019-03-31T00:10:29.821Z,68.32
2019-03-31T00:12:57.625Z,68.23
2019-03-31T00:15:25.405Z,67.33
2019-03-31T00:17:53.198Z,66.02
2019-03-31T00:20:20.995Z,66.20
2019-03-31T00:22:48.810Z,65.71
2019-03-31T00:25:16.605Z,64.38
2019-03-31T00:27:44.408Z,65.51
2019-03-31T00:30:12.366Z,66.43
2019-03-31T00:32:40.174Z,66.97
2019-03-31T00:35:07.957Z,67.83
2019-03-31T00:37:35.758Z,67.51
2019-03-31T00:40:03.726Z,67.86
2019-03-31T00:42:31.529Z,67.45
2019-03-31T00:44:59.322Z,67.79
2019-03-31T00:47:27.128Z,69.59
2019-03-31T00:49:54.910Z,70.08
2019-03-31T00:52:22.743Z,69.73
2019-03-31T00:54:50.710Z,70.00
2019-03-31T00:57:18.602Z,68.81
2019-03-31T00:59:46.905Z,70.81
2019-03-31T01:02:16.001Z,72.49
2019-03-31T01:04:43.897Z,73.35
2019-03-31T01:07:11.747Z,73.84
2019-03-31T01:09:39.809Z,74.96
2019-03-31T01:12:07.661Z,74.36
2019-03-31T01:14:36.166Z,73.79
2019-03-31T01:17:04.625Z,74.75
2019-03-31T01:19:32.571Z,74.20
2019-03-31T01:22:00.598Z,73.64
2019-03-31T01:24:28.533Z,73.21
2019-03-31T01:26:56.340Z,73.89
2019-03-31T01:29:24.138Z,73.55
2019-03-31T01:31:51.930Z,74.47
2019-03-31T01:34:19.744Z,73.95
2019-03-31T01:36:47.522Z,74.24
2019-03-31T01:39:15.333Z,75.32
2019-03-31T01:41:46.101Z,75.53
2019-03-31T01:44:14.430Z,73.15
2019-03-31T01:46:42.802Z,74.78
2019-03-31T01:49:10.778Z,75.94
2019-03-31T01:51:38.684Z,74.36
2019-03-31T01:54:06.488Z,75.30
2019-03-31T01:56:34.276Z,73.47
2019-03-31T01:59:02.089Z,71.81
2019-03-31T02:01:29.868Z,73.94
2019-03-31T02:03:57.661Z,75.32
2019-03-31T02:06:25.437Z,77.20
2019-03-31T02:08:53.242Z,77.67
2019-03-31T02:11:21.035Z,79.16
2019-03-31T02:13:48.826Z,80.79
2019-03-31T02:16:16.643Z,80.62
2019-03-31T02:18:44.669Z,80.36
2019-03-31T02:21:12.724Z,79.05
2019-03-31T02:23:40.907Z,77.29
2019-03-31T02:26:08.770Z,77.42
2019-03-31T02:28:36.612Z,76.76
2019-03-31T02:31:04.590Z,76.20
2019-03-31T02:33:32.650Z,76.25
2019-03-31T02:36:00.551Z,76.86
2019-03-31T02:38:28.396Z,77.53
2019-03-31T02:40:56.208Z,77.58
2019-03-31T02:43:24.342Z,76.64
2019-03-31T02:45:52.172Z,76.94
2019-03-31T02:48:19.995Z,76.44
2019-03-31T02:50:49.183Z,76.17
2019-03-31T02:53:17.949Z,75.61
2019-03-31T02:55:46.570Z,74.53
2019-03-31T02:58:17.425Z,72.58
2019-03-31T03:00:47.952Z,74.00
2019-03-31T03:03:15.974Z,72.18
2019-03-31T03:05:44.180Z,71.77
2019-03-31T03:08:12.702Z,72.95
2019-03-31T03:10:40.577Z,73.04
2019-03-31T03:13:08.862Z,72.95
2019-03-31T03:15:43.171Z,71.90
2019-03-31T03:18:11.063Z,74.51
2019-03-31T03:20:38.947Z,74.34
2019-03-31T03:23:06.758Z,77.31
2019-03-31T03:25:34.549Z,77.15
2019-03-31T03:28:02.580Z,77.46
2019-03-31T03:30:30.549Z,76.45
2019-03-31T03:33:14.632Z,78.33
2019-03-31T03:35:26.166Z,78.24
2019-03-31T03:37:54.083Z,79.92
2019-03-31T03:40:21.906Z,79.82
2019-03-31T03:42:49.716Z,79.42
2019-03-31T03:45:17.589Z,79.51
2019-03-31T03:47:45.474Z,79.54
2019-03-31T03:50:13.408Z,80.45
2019-03-31T03:52:41.287Z,79.74
2019-03-31T03:55:09.213Z,77.65
2019-03-31T03:57:37.134Z,75.28
2019-03-31T04:00:05.468Z,73.91
2019-03-31T04:02:34.055Z,74.66
2019-03-31T04:05:02.157Z,75.46
2019-03-31T04:07:30.046Z,76.28
2019-03-31T04:09:59.016Z,75.74
2019-03-31T04:12:26.871Z,75.72
2019-03-31T04:14:54.774Z,77.74
2019-03-31T04:17:22.579Z,75.17
2019-03-31T04:19:50.426Z,75.62
2019-03-31T04:22:18.353Z,76.90
2019-03-31T04:24:46.208Z,77.21
2019-03-31T04:27:18.552Z,75.50
2019-03-31T04:29:42.046Z,75.75
2019-03-31T04:32:09.911Z,76.47
2019-03-31T04:34:37.895Z,77.47
2019-03-31T04:37:05.748Z,77.63
2019-03-31T04:39:33.601Z,76.96
2019-03-31T04:42:01.450Z,76.66
2019-03-31T04:44:29.274Z,76.15
2019-03-31T04:46:57.096Z,75.18
2019-03-31T04:49:24.944Z,75.56
2019-03-31T04:51:52.726Z,77.83
2019-03-31T04:54:20.550Z,77.80
2019-03-31T04:56:48.370Z,78.18
2019-03-31T04:59:16.212Z,77.61
2019-03-31T05:01:44.026Z,78.62
2019-03-31T05:04:11.844Z,77.97
2019-03-31T05:06:40.851Z,78.22
2019-03-31T05:09:08.595Z,76.49
2019-03-31T05:11:36.487Z,77.88
2019-03-31T05:14:04.285Z,79.29
2019-03-31T05:16:32.290Z,80.08
2019-03-31T05:19:00.102Z,81.43
2019-03-31T05:21:27.884Z,81.66
2019-03-31T05:23:55.684Z,81.66
2019-03-31T05:26:23.558Z,80.21
2019-03-31T05:28:52.170Z,79.68
2019-03-31T05:31:19.987Z,79.38
2019-03-31T05:33:48.198Z,79.12
2019-03-31T05:36:15.983Z,78.50
2019-03-31T05:38:43.793Z,77.63
2019-03-31T05:41:11.584Z,77.06
2019-03-31T05:43:39.378Z,77.25
2019-03-31T05:46:07.158Z,76.52
2019-03-31T05:48:34.955Z,76.13
2019-03-31T05:51:02.743Z,75.45
2019-03-31T05:53:30.542Z,77.49
2019-03-31T05:55:58.347Z,77.72
2019-03-31T05:58:26.139Z,79.34
2019-03-31T06:00:53.942Z,80.46
2019-03-31T06:03:21.721Z,79.99
2019-03-31T06:05:49.527Z,79.36
2019-03-31T06:08:17.357Z,78.88
2019-03-31T06:10:45.166Z,79.53
2019-03-31T06:13:12.954Z,80.98
2019-03-31T06:15:40.798Z,79.06
2019-03-31T06:18:08.679Z,79.35
2019-03-31T06:20:36.470Z,79.17
2019-03-31T06:23:04.312Z,78.64
2019-03-31T06:25:32.118Z,78.46
2019-03-31T06:28:00.490Z,77.27
2019-03-31T06:30:28.287Z,77.84
2019-03-31T06:32:56.070Z,77.36
2019-03-31T06:35:23.874Z,77.84
2019-03-31T06:37:51.686Z,78.01
2019-03-31T06:40:19.505Z,78.98
2019-03-31T06:42:47.410Z,77.82
2019-03-31T06:45:15.209Z,76.00
2019-03-31T06:47:42.986Z,74.45
2019-03-31T06:50:10.802Z,74.20
2019-03-31T06:52:38.582Z,74.83
2019-03-31T06:55:06.645Z,73.87
2019-03-31T06:57:34.434Z,73.07
2019-03-31T07:00:02.261Z,73.75
2019-03-31T07:02:30.069Z,73.16
2019-03-31T07:05:01.307Z,73.12
2019-03-31T07:07:25.674Z,72.42
2019-03-31T07:09:53.566Z,71.16
2019-03-31T07:15:02.733Z,70.10
2019-03-31T07:17:30.804Z,70.55
2019-03-31T07:19:58.634Z,70.39
2019-03-31T07:22:26.445Z,71.01
2019-03-31T07:24:54.251Z,70.28
2019-03-31T07:27:22.026Z,68.70
2019-03-31T07:29:49.834Z,67.04
2019-03-31T07:32:17.626Z,67.65
2019-03-31T07:34:45.435Z,67.68
2019-03-31T07:37:13.218Z,68.67
2019-03-31T07:39:41.502Z,68.12
2019-03-31T07:42:09.218Z,68.08
2019-03-31T07:44:36.866Z,67.38
2019-03-31T07:47:04.642Z,66.62
2019-03-31T07:49:32.494Z,66.29
2019-03-31T07:52:00.381Z,65.44
2019-03-31T07:54:28.105Z,64.32
2019-03-31T07:56:55.906Z,63.81
2019-03-31T07:59:23.710Z,63.81
2019-03-31T08:01:51.486Z,63.33
2019-03-31T08:04:19.262Z,63.05
2019-03-31T08:06:47.062Z,62.00
2019-03-31T08:09:14.854Z,62.26
2019-03-31T08:11:42.658Z,61.06
2019-03-31T08:14:10.463Z,60.38
2019-03-31T08:16:38.282Z,58.83
2019-03-31T08:19:06.066Z,58.08
2019-03-31T08:21:33.906Z,58.51
2019-03-31T08:24:01.691Z,58.54
2019-03-31T08:26:29.496Z,58.29
2019-03-31T08:28:58.658Z,59.08
2019-03-31T08:31:25.158Z,57.29
2019-03-31T08:33:52.938Z,57.69
2019-03-31T08:36:20.750Z,57.18
2019-03-31T08:38:48.543Z,56.58
2019-03-31T08:41:16.353Z,55.97
2019-03-31T08:43:44.175Z,57.76
2019-03-31T08:46:11.970Z,56.19
2019-03-31T08:48:39.745Z,56.18
2019-03-31T08:51:07.561Z,55.58
2019-03-31T08:53:35.417Z,56.85
2019-03-31T08:56:03.251Z,54.50
2019-03-31T08:58:31.133Z,53.99
2019-03-31T09:01:01.806Z,54.56
2019-03-31T09:03:29.634Z,54.58
2019-03-31T09:06:01.972Z,54.47
2019-03-31T09:08:25.262Z,53.85
2019-03-31T09:10:53.078Z,52.87
2019-03-31T09:13:20.854Z,52.38
2019-03-31T09:15:48.674Z,52.43
2019-03-31T09:18:16.451Z,52.70
2019-03-31T09:20:44.229Z,52.03
2019-03-31T09:23:12.034Z,49.46
2019-03-31T09:25:39.814Z,50.71
2019-03-31T09:28:07.623Z,50.05
2019-03-31T09:30:35.403Z,50.20
2019-03-31T09:33:03.326Z,48.97
2019-03-31T09:35:31.107Z,50.01
2019-03-31T09:37:58.916Z,49.63
2019-03-31T09:40:26.718Z,47.93
2019-03-31T09:42:54.605Z,47.50
2019-03-31T09:45:22.534Z,47.50
2019-03-31T09:47:50.350Z,45.79
2019-03-31T09:50:18.166Z,45.63
2019-03-31T09:52:45.967Z,45.05
2019-03-31T09:55:13.753Z,43.88
2019-03-31T09:57:41.550Z,46.02
2019-03-31T10:00:10.122Z,44.95
2019-03-31T10:02:38.457Z,46.79
2019-03-31T10:05:06.374Z,44.06
2019-03-31T10:07:34.210Z,43.95
2019-03-31T10:10:02.004Z,43.79
2019-03-31T10:12:29.906Z,43.53
2019-03-31T10:14:57.694Z,43.10
2019-03-31T10:17:25.509Z,42.34
2019-03-31T10:19:53.303Z,44.54
2019-03-31T10:22:21.098Z,41.98
2019-03-31T10:24:48.894Z,42.01
2019-03-31T10:27:16.703Z,42.38
2019-03-31T10:29:44.618Z,42.16
2019-03-31T10:32:12.406Z,41.15
2019-03-31T10:34:40.206Z,40.67
2019-03-31T10:37:08.010Z,40.67
2019-03-31T10:39:35.854Z,42.45
2019-03-31T10:42:03.673Z,40.51
2019-03-31T10:44:31.477Z,40.12
2019-03-31T10:46:59.686Z,39.88
2019-03-31T10:49:27.477Z,41.37
2019-03-31T10:51:55.598Z,40.35
2019-03-31T10:54:23.386Z,41.52
2019-03-31T10:56:51.182Z,40.36
2019-03-31T10:59:19.037Z,38.54
2019-03-31T11:01:46.918Z,41.33
2019-03-31T11:04:14.846Z,37.88
2019-03-31T11:06:42.653Z,39.57
2019-03-31T11:09:10.466Z,38.93
2019-03-31T11:11:38.268Z,37.77
2019-03-31T11:14:06.162Z,37.67
2019-03-31T11:16:33.969Z,37.95
2019-03-31T11:19:01.778Z,38.46
2019-03-31T11:21:34.267Z,39.48
2019-03-31T11:24:02.088Z,35.94
2019-03-31T11:26:29.881Z,35.52
2019-03-31T11:28:57.701Z,33.98
2019-03-31T11:31:25.501Z,33.26
2019-03-31T11:33:53.310Z,31.12
2019-03-31T11:36:21.109Z,32.42
2019-03-31T11:38:48.994Z,31.66
2019-03-31T11:41:16.871Z,31.95
2019-03-31T11:43:44.678Z,29.84
2019-03-31T11:46:12.469Z,30.72
2019-03-31T11:48:40.278Z,29.30
2019-03-31T11:51:08.085Z,28.83
2019-03-31T11:53:35.890Z,26.23
2019-03-31T11:56:03.682Z,28.03
2019-03-31T11:58:32.399Z,28.04
2019-03-31T12:00:59.277Z,29.13
2019-03-31T12:03:30.624Z,31.63
2019-03-31T12:05:54.969Z,29.13
2019-03-31T12:08:22.786Z,29.64
2019-03-31T12:10:50.561Z,29.85
2019-03-31T12:13:18.377Z,28.84
2019-03-31T12:15:46.193Z,28.65
2019-03-31T12:18:14.014Z,25.27
2019-03-31T12:20:41.801Z,28.01
2019-03-31T12:23:09.697Z,30.55
2019-03-31T12:25:37.487Z,31.06
2019-03-31T12:28:05.325Z,30.77
2019-03-31T12:30:33.099Z,28.71
2019-03-31T12:33:00.942Z,28.64
2019-03-31T12:35:28.733Z,27.16
2019-03-31T12:37:56.554Z,25.36
2019-03-31T12:40:29.929Z,24.88
2019-03-31T12:42:57.814Z,26.37
2019-03-31T12:45:25.614Z,26.34
2019-03-31T12:47:53.422Z,28.77
2019-03-31T12:50:21.207Z,26.12
2019-03-31T12:52:51.091Z,27.41
2019-03-31T12:55:16.835Z,25.29
2019-03-31T12:57:44.710Z,26.10
2019-03-31T13:00:12.512Z,25.67
2019-03-31T13:02:40.306Z,27.88
2019-03-31T13:05:08.103Z,24.84
2019-03-31T13:07:35.890Z,25.13
2019-03-31T13:10:03.762Z,28.66
2019-03-31T13:12:34.799Z,27.46
2019-03-31T13:14:59.366Z,28.66
2019-03-31T13:17:27.182Z,29.49
2019-03-31T13:19:54.994Z,26.99
2019-03-31T13:22:22.782Z,25.99
2019-03-31T13:24:50.610Z,27.79
2019-03-31T13:27:18.414Z,29.17
2019-03-31T13:29:46.240Z,29.96
2019-03-31T13:32:14.010Z,28.35
2019-03-31T13:34:41.814Z,29.33
2019-03-31T13:37:09.618Z,28.72
2019-03-31T13:39:37.434Z,27.94
2019-03-31T13:42:05.242Z,30.77
2019-03-31T13:44:33.042Z,29.16
2019-03-31T13:47:00.864Z,29.68
2019-03-31T13:49:28.630Z,28.78
2019-03-31T13:51:56.406Z,28.55
2019-03-31T13:54:24.205Z,29.03
2019-03-31T13:56:52.691Z,26.97
2019-03-31T13:59:19.814Z,28.43
2019-03-31T14:01:47.594Z,28.56
2019-03-31T14:04:15.401Z,27.82
2019-03-31T14:06:43.209Z,27.20
2019-03-31T14:09:10.999Z,26.48
2019-03-31T14:11:38.801Z,26.48
2019-03-31T14:14:06.635Z,27.44
2019-03-31T14:16:34.410Z,26.64
2019-03-31T14:19:02.222Z,26.87
2019-03-31T14:21:30.027Z,26.47
2019-03-31T14:23:57.841Z,27.88
2019-03-31T14:26:25.626Z,28.47
2019-03-31T14:28:53.445Z,28.23
2019-03-31T14:31:21.222Z,29.43
2019-03-31T14:33:49.017Z,28.88
2019-03-31T14:36:16.822Z,28.99
2019-03-31T14:38:44.634Z,31.02
2019-03-31T14:41:12.458Z,31.37
2019-03-31T14:43:40.254Z,32.37
2019-03-31T14:46:08.078Z,32.61
2019-03-31T14:48:35.883Z,32.96
2019-03-31T14:51:03.701Z,32.31
2019-03-31T14:53:31.490Z,32.50
2019-03-31T14:55:59.329Z,32.16
2019-03-31T14:58:27.111Z,32.08
2019-03-31T15:00:54.910Z,32.28
2019-03-31T15:03:22.722Z,32.22
2019-03-31T15:05:50.533Z,32.40
2019-03-31T15:08:18.343Z,30.95
2019-03-31T15:10:46.183Z,31.83
2019-03-31T15:13:13.982Z,30.74
2019-03-31T15:15:41.794Z,31.63
2019-03-31T15:18:09.601Z,31.01
2019-03-31T15:20:37.415Z,31.09
2019-03-31T15:23:05.210Z,31.31
2019-03-31T15:25:33.069Z,30.89
2019-03-31T15:28:01.071Z,31.40
2019-03-31T15:30:28.890Z,30.92
2019-03-31T15:32:56.698Z,30.39
2019-03-31T15:35:24.523Z,31.49
2019-03-31T15:37:52.386Z,30.77
2019-03-31T15:40:20.195Z,30.48
2019-03-31T15:42:47.980Z,29.54
2019-03-31T15:45:15.817Z,30.51
2019-03-31T15:47:43.646Z,31.63
2019-03-31T15:50:11.578Z,30.05
2019-03-31T15:52:40.200Z,30.10
2019-03-31T15:55:08.015Z,31.50
2019-03-31T15:57:35.851Z,31.39
2019-03-31T16:00:04.018Z,31.80
2019-03-31T16:02:31.806Z,29.64
2019-03-31T16:04:59.609Z,29.71
2019-03-31T16:07:27.438Z,30.72
2019-03-31T16:09:54.191Z,30.27
2019-03-31T16:12:20.951Z,32.21
2019-03-31T16:14:47.709Z,30.57
2019-03-31T16:17:14.493Z,32.47
2019-03-31T16:19:41.246Z,31.97
2019-03-31T16:22:08.022Z,31.38
2019-03-31T16:24:39.403Z,32.81
2019-03-31T16:27:06.154Z,32.91
2019-03-31T16:29:32.894Z,31.04
2019-03-31T16:31:59.688Z,30.75
2019-03-31T16:34:26.406Z,34.38
2019-03-31T16:36:53.275Z,34.02
2019-03-31T16:39:20.014Z,35.45
2019-03-31T16:41:46.778Z,33.05
2019-03-31T16:44:13.520Z,35.10
2019-03-31T16:46:40.327Z,34.51
2019-03-31T16:49:07.130Z,35.05
2019-03-31T16:51:33.890Z,36.22
2019-03-31T16:54:00.622Z,34.23
2019-03-31T16:56:27.406Z,35.55
2019-03-31T16:58:54.152Z,36.44
2019-03-31T17:01:20.894Z,36.41
2019-03-31T17:03:47.634Z,36.46
2019-03-31T17:06:14.394Z,35.58
2019-03-31T17:08:41.122Z,36.03
2019-03-31T17:11:07.875Z,35.23
2019-03-31T17:13:34.775Z,37.11
2019-03-31T17:16:01.526Z,37.61
2019-03-31T17:18:28.279Z,38.81
2019-03-31T17:20:55.046Z,38.12
2019-03-31T17:23:21.773Z,38.31
2019-03-31T17:25:48.888Z,37.53
2019-03-31T17:28:15.574Z,38.11
2019-03-31T17:30:42.321Z,37.34
2019-03-31T17:33:09.037Z,38.53
2019-03-31T17:35:35.801Z,38.53
2019-03-31T17:38:02.535Z,39.34
2019-03-31T17:40:29.286Z,38.04
2019-03-31T17:42:56.170Z,38.31
2019-03-31T17:45:22.950Z,38.53
2019-03-31T17:47:49.674Z,38.89
2019-03-31T17:50:16.481Z,39.67
2019-03-31T17:52:43.251Z,39.35
2019-03-31T17:55:09.990Z,40.29
2019-03-31T17:57:36.775Z,46.57
2019-03-31T18:00:04.844Z,51.58
2019-03-31T18:02:31.618Z,53.43
2019-03-31T18:04:58.358Z,53.85
2019-03-31T18:07:25.117Z,55.17
2019-03-31T18:09:51.850Z,56.02
2019-03-31T18:12:18.598Z,56.27
2019-03-31T18:14:45.322Z,56.87
2019-03-31T18:17:12.059Z,57.25
2019-03-31T18:19:38.796Z,58.07
2019-03-31T18:22:16.238Z,58.13
2019-03-31T18:24:32.361Z,58.63
2019-03-31T18:26:59.106Z,59.07
2019-03-31T18:29:25.846Z,59.44
2019-03-31T18:31:52.610Z,59.66
2019-03-31T18:34:19.334Z,60.43
2019-03-31T18:36:46.082Z,60.30
2019-03-31T18:39:12.822Z,60.99
2019-03-31T18:41:39.578Z,61.67
2019-03-31T18:44:06.316Z,61.85
2019-03-31T18:46:33.062Z,61.64
2019-03-31T18:48:59.803Z,61.83
2019-03-31T18:51:26.565Z,62.40
2019-03-31T18:53:59.175Z,62.41
2019-03-31T18:56:46.515Z,63.18
2019-03-31T18:59:24.673Z,63.63
2019-03-31T19:02:13.016Z,63.53
2019-03-31T19:04:56.739Z,64.01
2019-03-31T19:07:42.820Z,64.26
2019-03-31T19:10:24.811Z,64.28
2019-03-31T19:13:13.771Z,64.51
2019-03-31T19:15:54.411Z,65.87
2019-03-31T19:18:29.306Z,65.90
2019-03-31T19:21:10.904Z,65.56
2019-03-31T19:23:49.422Z,67.01
2019-03-31T19:26:48.385Z,66.54
2019-03-31T19:29:17.101Z,66.83
2019-03-31T19:31:48.530Z,67.68
2019-03-31T19:34:24.550Z,67.08
2019-03-31T19:36:56.979Z,67.65
2019-03-31T19:39:29.498Z,68.07
2019-03-31T19:42:05.323Z,67.68
2019-03-31T19:44:42.391Z,68.70
2019-03-31T19:47:21.539Z,68.73
2019-03-31T19:49:57.670Z,68.34
2019-03-31T19:52:48.838Z,69.27
2019-03-31T19:55:26.174Z,68.58
2019-03-31T19:57:58.683Z,69.28
2019-03-31T20:00:36.465Z,69.56
2019-03-31T20:03:09.115Z,69.03
2019-03-31T20:05:45.086Z,69.47
2019-03-31T20:08:31.446Z,69.62
2019-03-31T20:11:18.802Z,70.23
2019-03-31T20:13:55.477Z,69.72
2019-03-31T20:16:28.067Z,69.93
2019-03-31T20:19:14.427Z,70.34
2019-03-31T20:21:48.719Z,70.62
2019-03-31T20:24:26.266Z,70.33
2019-03-31T20:27:00.189Z,70.35
2019-03-31T20:29:34.097Z,70.35
2019-03-31T20:32:06.589Z,71.19
2019-03-31T20:34:46.338Z,71.37
2019-03-31T20:37:23.553Z,70.86
2019-03-31T20:40:07.043Z,71.76
2019-03-31T20:42:42.890Z,71.32
2019-03-31T20:45:09.651Z,71.59
2019-03-31T20:47:36.410Z,71.19
2019-03-31T20:50:04.038Z,71.63
2019-03-31T20:52:30.778Z,71.91
2019-03-31T20:54:57.504Z,71.65
2019-03-31T20:57:24.254Z,72.32
2019-03-31T20:59:51.092Z,71.87
2019-03-31T21:02:17.735Z,72.12
2019-03-31T21:04:44.474Z,71.89
2019-03-31T21:07:11.271Z,72.23
2019-03-31T21:09:44.938Z,72.22
2019-03-31T21:12:04.715Z,72.05
2019-03-31T21:14:31.454Z,71.62
2019-03-31T21:16:58.185Z,72.27
2019-03-31T21:19:24.937Z,72.65
2019-03-31T21:21:51.672Z,73.05
2019-03-31T21:24:18.426Z,73.90
2019-03-31T21:26:45.158Z,73.71
2019-03-31T21:29:11.909Z,73.49
2019-03-31T21:31:38.679Z,73.29
2019-03-31T21:34:05.430Z,73.96
2019-03-31T21:36:32.146Z,73.21
2019-03-31T21:38:58.899Z,73.57
2019-03-31T21:41:25.630Z,73.33
2019-03-31T21:43:52.382Z,74.07
2019-03-31T21:46:19.153Z,74.03
2019-03-31T21:48:45.898Z,74.16
2019-03-31T21:51:12.641Z,73.83
2019-03-31T21:53:39.394Z,73.82
2019-03-31T21:56:06.113Z,74.78
2019-03-31T21:58:32.906Z,74.05
2019-03-31T22:00:59.672Z,74.33
2019-03-31T22:03:26.426Z,74.43
2019-03-31T22:05:53.168Z,75.23
2019-03-31T22:08:19.922Z,74.65
2019-03-31T22:10:46.674Z,75.25
2019-03-31T22:13:13.413Z,75.28
2019-03-31T22:15:40.157Z,75.62
2019-03-31T22:18:06.890Z,75.06
2019-03-31T22:20:33.630Z,75.53
2019-03-31T22:23:00.362Z,75.85
2019-03-31T22:25:27.106Z,76.42
2019-03-31T22:27:53.826Z,77.02
2019-03-31T22:30:20.587Z,77.49
2019-03-31T22:32:47.323Z,77.41
2019-03-31T22:35:14.077Z,78.22
2019-03-31T22:37:40.807Z,77.96
2019-03-31T22:40:07.619Z,77.32
2019-03-31T22:42:34.355Z,77.79
2019-03-31T22:45:01.101Z,77.68
2019-03-31T22:47:27.830Z,77.87
2019-03-31T22:49:54.574Z,78.05
2019-03-31T22:52:21.306Z,77.64
2019-03-31T22:54:48.086Z,78.01
2019-03-31T22:57:14.818Z,77.17
2019-03-31T22:59:41.574Z,78.10
2019-03-31T23:02:08.330Z,79.06
2019-03-31T23:04:35.090Z,78.95
2019-03-31T23:07:01.817Z,78.87
2019-03-31T23:09:28.691Z,78.91
2019-03-31T23:11:55.414Z,78.94
2019-03-31T23:14:22.186Z,79.35
2019-03-31T23:16:48.913Z,80.21
2019-03-31T23:19:15.670Z,80.93
2019-03-31T23:21:42.413Z,80.63
2019-03-31T23:24:09.146Z,80.38
2019-03-31T23:26:35.874Z,80.21
2019-03-31T23:29:02.633Z,80.92
2019-03-31T23:31:29.354Z,80.51
2019-03-31T23:33:56.087Z,81.13
2019-03-31T23:36:22.849Z,80.63
2019-03-31T23:38:49.642Z,80.34
2019-03-31T23:41:16.420Z,80.07
2019-03-31T23:43:43.154Z,79.69
2019-03-31T23:46:09.904Z,81.00
2019-03-31T23:48:36.632Z,81.46
2019-03-31T23:51:03.378Z,81.22
2019-03-31T23:53:30.103Z,80.89
2019-03-31T23:55:56.858Z,81.37
2019-03-31T23:58:23.598Z,81.56
